sensor_id;sensor_type;location;lat;lon;timestamp;pressure;altitude;pressure_sealevel;temperature
42119;BMP280;27783;42.782;23.274;2024-02-14T00:01:47;95262.09;;;6.63
42119;BMP280;27783;42.782;23.274;2024-02-14T00:04:13;95269.94;;;6.63
42119;BMP280;27783;42.782;23.274;2024-02-14T00:06:39;95271.50;;;6.67
42119;BMP280;27783;42.782;23.274;2024-02-14T00:09:05;95272.63;;;6.70
42119;BMP280;27783;42.782;23.274;2024-02-14T00:11:32;95270.72;;;6.67
42119;BMP280;27783;42.782;23.274;2024-02-14T00:13:57;95283.06;;;6.66
42119;BMP280;27783;42.782;23.274;2024-02-14T00:16:24;95276.03;;;6.74
42119;BMP280;27783;42.782;23.274;2024-02-14T00:18:49;95278.97;;;6.69
42119;BMP280;27783;42.782;23.274;2024-02-14T00:21:16;95285.72;;;6.70
42119;BMP280;27783;42.782;23.274;2024-02-14T00:23:41;95290.22;;;6.73
42119;BMP280;27783;42.782;23.274;2024-02-14T00:26:07;95289.13;;;6.74
42119;BMP280;27783;42.782;23.274;2024-02-14T00:28:32;95302.94;;;6.71
42119;BMP280;27783;42.782;23.274;2024-02-14T00:30:58;95291.75;;;6.74
42119;BMP280;27783;42.782;23.274;2024-02-14T00:33:23;95297.34;;;6.76
42119;BMP280;27783;42.782;23.274;2024-02-14T00:35:49;95301.03;;;6.68
42119;BMP280;27783;42.782;23.274;2024-02-14T00:38:14;95302.53;;;6.69
42119;BMP280;27783;42.782;23.274;2024-02-14T00:40:39;95299.19;;;6.72
42119;BMP280;27783;42.782;23.274;2024-02-14T00:43:05;95299.22;;;6.75
42119;BMP280;27783;42.782;23.274;2024-02-14T00:45:30;95308.22;;;6.78
42119;BMP280;27783;42.782;23.274;2024-02-14T00:47:56;95295.50;;;6.76
42119;BMP280;27783;42.782;23.274;2024-02-14T00:50:21;95295.88;;;6.75
42119;BMP280;27783;42.782;23.274;2024-02-14T00:52:47;95293.94;;;6.72
42119;BMP280;27783;42.782;23.274;2024-02-14T00:55:12;95304.34;;;6.65
42119;BMP280;27783;42.782;23.274;2024-02-14T00:57:37;95294.69;;;6.72
42119;BMP280;27783;42.782;23.274;2024-02-14T01:00:04;95294.34;;;6.74
42119;BMP280;27783;42.782;23.274;2024-02-14T01:02:31;95293.50;;;6.63
42119;BMP280;27783;42.782;23.274;2024-02-14T01:04:56;95287.97;;;6.68
42119;BMP280;27783;42.782;23.274;2024-02-14T01:07:22;95304.78;;;6.67
42119;BMP280;27783;42.782;23.274;2024-02-14T01:09:47;95294.00;;;6.79
42119;BMP280;27783;42.782;23.274;2024-02-14T01:12:13;95302.19;;;6.70
42119;BMP280;27783;42.782;23.274;2024-02-14T01:14:38;95284.97;;;6.69
42119;BMP280;27783;42.782;23.274;2024-02-14T01:17:03;95303.31;;;6.73
42119;BMP280;27783;42.782;23.274;2024-02-14T01:19:29;95299.47;;;6.60
42119;BMP280;27783;42.782;23.274;2024-02-14T01:21:55;95294.66;;;6.65
42119;BMP280;27783;42.782;23.274;2024-02-14T01:24:22;95311.75;;;6.53
42119;BMP280;27783;42.782;23.274;2024-02-14T01:26:47;95297.88;;;6.49
42119;BMP280;27783;42.782;23.274;2024-02-14T01:29:13;95300.44;;;6.46
42119;BMP280;27783;42.782;23.274;2024-02-14T01:31:38;95300.78;;;6.41
42119;BMP280;27783;42.782;23.274;2024-02-14T01:34:04;95312.09;;;6.48
42119;BMP280;27783;42.782;23.274;2024-02-14T01:36:29;95300.53;;;6.56
42119;BMP280;27783;42.782;23.274;2024-02-14T01:38:55;95295.28;;;6.52
42119;BMP280;27783;42.782;23.274;2024-02-14T01:41:20;95305.81;;;6.59
42119;BMP280;27783;42.782;23.274;2024-02-14T01:43:47;95304.34;;;6.58
42119;BMP280;27783;42.782;23.274;2024-02-14T01:46:14;95304.34;;;6.58
42119;BMP280;27783;42.782;23.274;2024-02-14T01:48:41;95302.03;;;6.53
42119;BMP280;27783;42.782;23.274;2024-02-14T01:51:08;95298.34;;;6.58
42119;BMP280;27783;42.782;23.274;2024-02-14T01:53:36;95302.16;;;6.67
42119;BMP280;27783;42.782;23.274;2024-02-14T01:56:03;95303.16;;;6.56
42119;BMP280;27783;42.782;23.274;2024-02-14T01:58:30;95305.38;;;6.50
42119;BMP280;27783;42.782;23.274;2024-02-14T02:00:56;95303.13;;;6.52
42119;BMP280;27783;42.782;23.274;2024-02-14T02:03:24;95305.06;;;6.59
42119;BMP280;27783;42.782;23.274;2024-02-14T02:05:50;95307.28;;;6.57
42119;BMP280;27783;42.782;23.274;2024-02-14T02:08:15;95303.56;;;6.58
42119;BMP280;27783;42.782;23.274;2024-02-14T02:10:41;95302.81;;;6.57
42119;BMP280;27783;42.782;23.274;2024-02-14T02:13:08;95311.41;;;6.54
42119;BMP280;27783;42.782;23.274;2024-02-14T02:15:34;95304.66;;;6.53
42119;BMP280;27783;42.782;23.274;2024-02-14T02:18:00;95316.97;;;6.53
42119;BMP280;27783;42.782;23.274;2024-02-14T02:20:26;95309.50;;;6.51
42119;BMP280;27783;42.782;23.274;2024-02-14T02:22:53;95311.00;;;6.52
42119;BMP280;27783;42.782;23.274;2024-02-14T02:25:18;95301.66;;;6.51
42119;BMP280;27783;42.782;23.274;2024-02-14T02:27:48;95304.28;;;6.51
42119;BMP280;27783;42.782;23.274;2024-02-14T02:30:14;95301.66;;;6.51
42119;BMP280;27783;42.782;23.274;2024-02-14T02:32:39;95322.25;;;6.56
42119;BMP280;27783;42.782;23.274;2024-02-14T02:35:06;95320.69;;;6.52
42119;BMP280;27783;42.782;23.274;2024-02-14T02:37:33;95321.47;;;6.52
42119;BMP280;27783;42.782;23.274;2024-02-14T02:39:58;95318.84;;;6.52
42119;BMP280;27783;42.782;23.274;2024-02-14T02:42:24;95327.09;;;6.54
42119;BMP280;27783;42.782;23.274;2024-02-14T02:44:50;95324.06;;;6.52
42119;BMP280;27783;42.782;23.274;2024-02-14T02:47:16;95325.91;;;6.45
42119;BMP280;27783;42.782;23.274;2024-02-14T02:49:44;95334.16;;;6.50
42119;BMP280;27783;42.782;23.274;2024-02-14T02:52:10;95334.97;;;6.54
42119;BMP280;27783;42.782;23.274;2024-02-14T02:54:36;95336.00;;;6.47
42119;BMP280;27783;42.782;23.274;2024-02-14T02:57:02;95341.59;;;6.48
42119;BMP280;27783;42.782;23.274;2024-02-14T02:59:28;95343.94;;;6.57
42119;BMP280;27783;42.782;23.274;2024-02-14T03:01:55;95347.28;;;6.54
42119;BMP280;27783;42.782;23.274;2024-02-14T03:04:20;95345.34;;;6.48
42119;BMP280;27783;42.782;23.274;2024-02-14T03:06:46;95346.09;;;6.45
42119;BMP280;27783;42.782;23.274;2024-02-14T03:09:11;95347.63;;;6.52
42119;BMP280;27783;42.782;23.274;2024-02-14T03:11:37;95369.31;;;6.49
42119;BMP280;27783;42.782;23.274;2024-02-14T03:14:03;95366.38;;;6.54
42119;BMP280;27783;42.782;23.274;2024-02-14T03:16:29;95370.41;;;6.48
42119;BMP280;27783;42.782;23.274;2024-02-14T03:18:55;95366.78;;;6.60
42119;BMP280;27783;42.782;23.274;2024-02-14T03:21:20;95371.16;;;6.49
42119;BMP280;27783;42.782;23.274;2024-02-14T03:23:46;95370.88;;;6.57
42119;BMP280;27783;42.782;23.274;2024-02-14T03:26:11;95374.59;;;6.56
42119;BMP280;27783;42.782;23.274;2024-02-14T03:28:37;95376.09;;;6.54
42119;BMP280;27783;42.782;23.274;2024-02-14T03:31:02;95373.78;;;6.49
42119;BMP280;27783;42.782;23.274;2024-02-14T03:33:27;95384.94;;;6.43
42119;BMP280;27783;42.782;23.274;2024-02-14T03:35:54;95384.97;;;6.46
42119;BMP280;27783;42.782;23.274;2024-02-14T03:38:29;95393.94;;;6.45
42119;BMP280;27783;42.782;23.274;2024-02-14T03:40:56;95399.16;;;6.42
42119;BMP280;27783;42.782;23.274;2024-02-14T03:43:22;95393.53;;;6.43
42119;BMP280;27783;42.782;23.274;2024-02-14T03:45:49;95393.91;;;6.42
42119;BMP280;27783;42.782;23.274;2024-02-14T03:48:14;95398.00;;;6.43
42119;BMP280;27783;42.782;23.274;2024-02-14T03:50:40;95396.53;;;6.42
42119;BMP280;27783;42.782;23.274;2024-02-14T03:53:05;95398.34;;;6.38
42119;BMP280;27783;42.782;23.274;2024-02-14T03:55:31;95400.13;;;6.31
42119;BMP280;27783;42.782;23.274;2024-02-14T03:57:56;95399.06;;;6.35
42119;BMP280;27783;42.782;23.274;2024-02-14T04:00:22;95399.41;;;6.33
42119;BMP280;27783;42.782;23.274;2024-02-14T04:02:48;95403.13;;;6.32
42119;BMP280;27783;42.782;23.274;2024-02-14T04:05:14;95405.75;;;6.32
42119;BMP280;27783;42.782;23.274;2024-02-14T04:07:40;95400.19;;;6.34
42119;BMP280;27783;42.782;23.274;2024-02-14T04:10:05;95408.38;;;6.32
42119;BMP280;27783;42.782;23.274;2024-02-14T04:12:31;95409.13;;;6.33
42119;BMP280;27783;42.782;23.274;2024-02-14T04:14:57;95405.06;;;6.39
42119;BMP280;27783;42.782;23.274;2024-02-14T04:17:23;95412.88;;;6.32
42119;BMP280;27783;42.782;23.274;2024-02-14T04:19:49;95409.84;;;6.30
42119;BMP280;27783;42.782;23.274;2024-02-14T04:22:15;95413.59;;;6.32
42119;BMP280;27783;42.782;23.274;2024-02-14T04:24:40;95419.22;;;6.31
42119;BMP280;27783;42.782;23.274;2024-02-14T04:27:06;95421.75;;;6.24
42119;BMP280;27783;42.782;23.274;2024-02-14T04:29:31;95418.50;;;6.34
42119;BMP280;27783;42.782;23.274;2024-02-14T04:31:59;95428.44;;;6.22
42119;BMP280;27783;42.782;23.274;2024-02-14T04:34:25;95426.59;;;6.26
42119;BMP280;27783;42.782;23.274;2024-02-14T04:36:50;95426.56;;;6.22
42119;BMP280;27783;42.782;23.274;2024-02-14T04:39:17;95432.22;;;6.24
42119;BMP280;27783;42.782;23.274;2024-02-14T04:41:42;95436.00;;;6.30
42119;BMP280;27783;42.782;23.274;2024-02-14T04:44:07;95446.25;;;6.13
42119;BMP280;27783;42.782;23.274;2024-02-14T04:46:33;95445.25;;;6.21
42119;BMP280;27783;42.782;23.274;2024-02-14T04:49:00;95445.25;;;6.21
42119;BMP280;27783;42.782;23.274;2024-02-14T04:51:29;95443.78;;;6.23
42119;BMP280;27783;42.782;23.274;2024-02-14T04:53:54;95450.44;;;6.17
42119;BMP280;27783;42.782;23.274;2024-02-14T04:56:23;95453.50;;;6.23
42119;BMP280;27783;42.782;23.274;2024-02-14T04:58:49;95454.25;;;6.23
42119;BMP280;27783;42.782;23.274;2024-02-14T05:01:14;95459.22;;;6.32
42119;BMP280;27783;42.782;23.274;2024-02-14T05:03:40;95455.72;;;6.21
42119;BMP280;27783;42.782;23.274;2024-02-14T05:06:06;95469.19;;;6.23
42119;BMP280;27783;42.782;23.274;2024-02-14T05:08:31;95463.19;;;6.22
42119;BMP280;27783;42.782;23.274;2024-02-14T05:10:57;95460.22;;;6.24
42119;BMP280;27783;42.782;23.274;2024-02-14T05:13:22;95472.88;;;6.18
42119;BMP280;27783;42.782;23.274;2024-02-14T05:15:49;95477.78;;;6.23
42119;BMP280;27783;42.782;23.274;2024-02-14T05:18:16;95476.69;;;6.24
42119;BMP280;27783;42.782;23.274;2024-02-14T05:20:41;95479.66;;;6.23
42119;BMP280;27783;42.782;23.274;2024-02-14T05:23:07;95477.38;;;6.18
42119;BMP280;27783;42.782;23.274;2024-02-14T05:25:36;95481.03;;;6.14
42119;BMP280;27783;42.782;23.274;2024-02-14T05:28:01;95484.75;;;6.13
42119;BMP280;27783;42.782;23.274;2024-02-14T05:30:27;95495.22;;;6.13
42119;BMP280;27783;42.782;23.274;2024-02-14T05:32:53;95487.38;;;6.13
42119;BMP280;27783;42.782;23.274;2024-02-14T05:35:20;95494.13;;;6.14
42119;BMP280;27783;42.782;23.274;2024-02-14T05:37:45;95499.28;;;6.10
42119;BMP280;27783;42.782;23.274;2024-02-14T05:40:14;95505.28;;;6.11
42119;BMP280;27783;42.782;23.274;2024-02-14T05:42:40;95506.00;;;6.08
42119;BMP280;27783;42.782;23.274;2024-02-14T05:45:05;95506.81;;;6.12
42119;BMP280;27783;42.782;23.274;2024-02-14T05:47:31;95517.56;;;6.07
42119;BMP280;27783;42.782;23.274;2024-02-14T05:49:57;95513.91;;;6.11
42119;BMP280;27783;42.782;23.274;2024-02-14T05:52:22;95531.13;;;6.12
42119;BMP280;27783;42.782;23.274;2024-02-14T05:54:49;95524.38;;;6.11
42119;BMP280;27783;42.782;23.274;2024-02-14T05:57:14;95531.78;;;6.09
42119;BMP280;27783;42.782;23.274;2024-02-14T05:59:39;95526.16;;;6.07
42119;BMP280;27783;42.782;23.274;2024-02-14T06:02:05;95529.66;;;6.15
42119;BMP280;27783;42.782;23.274;2024-02-14T06:04:33;95540.78;;;6.08
42119;BMP280;27783;42.782;23.274;2024-02-14T06:06:58;95548.94;;;6.07
42119;BMP280;27783;42.782;23.274;2024-02-14T06:09:24;95546.44;;;6.14
42119;BMP280;27783;42.782;23.274;2024-02-14T06:11:50;95552.03;;;6.12
42119;BMP280;27783;42.782;23.274;2024-02-14T06:14:16;95554.94;;;6.07
42119;BMP280;27783;42.782;23.274;2024-02-14T06:16:42;95554.72;;;6.16
42119;BMP280;27783;42.782;23.274;2024-02-14T06:19:09;95555.00;;;6.11
42119;BMP280;27783;42.782;23.274;2024-02-14T06:21:35;95562.91;;;6.14
42119;BMP280;27783;42.782;23.274;2024-02-14T06:24:01;95578.25;;;6.16
42119;BMP280;27783;42.782;23.274;2024-02-14T06:26:29;95567.81;;;6.19
42119;BMP280;27783;42.782;23.274;2024-02-14T06:28:55;95577.88;;;6.17
42119;BMP280;27783;42.782;23.274;2024-02-14T06:31:21;95576.84;;;6.21
42119;BMP280;27783;42.782;23.274;2024-02-14T06:33:47;95583.56;;;6.22
42119;BMP280;27783;42.782;23.274;2024-02-14T06:36:13;95578.38;;;6.26
42119;BMP280;27783;42.782;23.274;2024-02-14T06:38:39;95580.00;;;6.33
42119;BMP280;27783;42.782;23.274;2024-02-14T06:41:05;95574.09;;;6.40
42119;BMP280;27783;42.782;23.274;2024-02-14T06:43:31;95591.63;;;6.36
42119;BMP280;27783;42.782;23.274;2024-02-14T06:45:56;95583.00;;;6.32
42119;BMP280;27783;42.782;23.274;2024-02-14T06:48:22;95585.66;;;6.39
42119;BMP280;27783;42.782;23.274;2024-02-14T06:50:49;95582.38;;;6.42
42119;BMP280;27783;42.782;23.274;2024-02-14T06:53:15;95595.84;;;6.44
42119;BMP280;27783;42.782;23.274;2024-02-14T06:55:40;95586.91;;;6.45
42119;BMP280;27783;42.782;23.274;2024-02-14T06:58:06;95589.97;;;6.50
42119;BMP280;27783;42.782;23.274;2024-02-14T07:00:32;95592.91;;;6.48
42119;BMP280;27783;42.782;23.274;2024-02-14T07:02:57;95601.63;;;6.56
42119;BMP280;27783;42.782;23.274;2024-02-14T07:05:23;95599.44;;;6.58
42119;BMP280;27783;42.782;23.274;2024-02-14T07:07:50;95603.59;;;6.62
42119;BMP280;27783;42.782;23.274;2024-02-14T07:10:15;95612.94;;;6.63
42119;BMP280;27783;42.782;23.274;2024-02-14T07:12:41;95615.91;;;6.58
42119;BMP280;27783;42.782;23.274;2024-02-14T07:15:06;95619.28;;;6.62
42119;BMP280;27783;42.782;23.274;2024-02-14T07:17:33;95621.53;;;6.60
42119;BMP280;27783;42.782;23.274;2024-02-14T07:19:59;95629.75;;;6.62
42119;BMP280;27783;42.782;23.274;2024-02-14T07:22:24;95630.00;;;6.50
42119;BMP280;27783;42.782;23.274;2024-02-14T07:24:50;95629.00;;;6.58
42119;BMP280;27783;42.782;23.274;2024-02-14T07:27:15;95628.88;;;6.51
42119;BMP280;27783;42.782;23.274;2024-02-14T07:29:44;95631.91;;;6.53
42119;BMP280;27783;42.782;23.274;2024-02-14T07:32:10;95640.13;;;6.55
42119;BMP280;27783;42.782;23.274;2024-02-14T07:34:38;95643.06;;;6.50
42119;BMP280;27783;42.782;23.274;2024-02-14T07:37:04;95640.84;;;6.52
42119;BMP280;27783;42.782;23.274;2024-02-14T07:39:30;95640.13;;;6.55
42119;BMP280;27783;42.782;23.274;2024-02-14T07:41:55;95647.00;;;6.63
42119;BMP280;27783;42.782;23.274;2024-02-14T07:44:22;95648.47;;;6.61
42119;BMP280;27783;42.782;23.274;2024-02-14T07:46:49;95643.22;;;6.61
42119;BMP280;27783;42.782;23.274;2024-02-14T07:49:14;95647.00;;;6.63
42119;BMP280;27783;42.782;23.274;2024-02-14T07:51:40;95649.94;;;6.58
42119;BMP280;27783;42.782;23.274;2024-02-14T07:54:05;95642.75;;;6.55
42119;BMP280;27783;42.782;23.274;2024-02-14T07:56:31;95652.22;;;6.63
42119;BMP280;27783;42.782;23.274;2024-02-14T07:58:57;95657.78;;;6.58
42119;BMP280;27783;42.782;23.274;2024-02-14T08:01:23;95659.00;;;6.64
42119;BMP280;27783;42.782;23.274;2024-02-14T08:03:49;95654.50;;;6.65
42119;BMP280;27783;42.782;23.274;2024-02-14T08:06:14;95651.56;;;6.69
42119;BMP280;27783;42.782;23.274;2024-02-14T08:08:40;95656.75;;;6.66
42119;BMP280;27783;42.782;23.274;2024-02-14T08:11:05;95661.28;;;6.69
42119;BMP280;27783;42.782;23.274;2024-02-14T08:13:31;95668.09;;;6.73
42119;BMP280;27783;42.782;23.274;2024-02-14T08:15:58;95669.38;;;6.86
42119;BMP280;27783;42.782;23.274;2024-02-14T08:18:24;95674.94;;;6.81
42119;BMP280;27783;42.782;23.274;2024-02-14T08:20:49;95675.25;;;6.76
42119;BMP280;27783;42.782;23.274;2024-02-14T08:23:15;95670.53;;;6.88
42119;BMP280;27783;42.782;23.274;2024-02-14T08:25:42;95676.81;;;6.81
42119;BMP280;27783;42.782;23.274;2024-02-14T08:28:10;95669.88;;;6.95
42119;BMP280;27783;42.782;23.274;2024-02-14T08:30:35;95676.50;;;6.85
42119;BMP280;27783;42.782;23.274;2024-02-14T08:33:03;95665.19;;;6.82
42119;BMP280;27783;42.782;23.274;2024-02-14T08:35:28;95671.34;;;6.92
42119;BMP280;27783;42.782;23.274;2024-02-14T08:37:54;95671.09;;;6.75
42119;BMP280;27783;42.782;23.274;2024-02-14T08:40:20;95673.09;;;6.85
42119;BMP280;27783;42.782;23.274;2024-02-14T08:42:45;95683.16;;;6.80
42119;BMP280;27783;42.782;23.274;2024-02-14T08:45:11;95684.56;;;6.74
42119;BMP280;27783;42.782;23.274;2024-02-14T08:47:37;95694.63;;;6.72
42119;BMP280;27783;42.782;23.274;2024-02-14T08:50:05;95686.09;;;6.78
42119;BMP280;27783;42.782;23.274;2024-02-14T08:52:31;95692.81;;;6.76
42119;BMP280;27783;42.782;23.274;2024-02-14T08:54:57;95692.16;;;6.82
42119;BMP280;27783;42.782;23.274;2024-02-14T08:57:23;95700.41;;;6.59
42119;BMP280;27783;42.782;23.274;2024-02-14T08:59:48;95700.34;;;6.55
42119;BMP280;27783;42.782;23.274;2024-02-14T09:02:14;95691.19;;;6.65
42119;BMP280;27783;42.782;23.274;2024-02-14T09:04:42;95697.47;;;6.60
42119;BMP280;27783;42.782;23.274;2024-02-14T09:07:07;95695.69;;;6.67
42119;BMP280;27783;42.782;23.274;2024-02-14T09:09:33;95702.91;;;6.74
42119;BMP280;27783;42.782;23.274;2024-02-14T09:11:59;95702.47;;;6.72
42119;BMP280;27783;42.782;23.274;2024-02-14T09:14:31;95703.41;;;6.82
42119;BMP280;27783;42.782;23.274;2024-02-14T09:16:57;95701.69;;;6.68
42119;BMP280;27783;42.782;23.274;2024-02-14T09:19:23;95705.31;;;6.85
42119;BMP280;27783;42.782;23.274;2024-02-14T09:21:50;95708.59;;;6.79
42119;BMP280;27783;42.782;23.274;2024-02-14T09:24:16;95715.34;;;6.80
42119;BMP280;27783;42.782;23.274;2024-02-14T09:26:41;95711.84;;;6.98
42119;BMP280;27783;42.782;23.274;2024-02-14T09:29:08;95713.16;;;7.11
42119;BMP280;27783;42.782;23.274;2024-02-14T09:31:36;95720.38;;;6.92
42119;BMP280;27783;42.782;23.274;2024-02-14T09:34:01;95723.22;;;7.09
42119;BMP280;27783;42.782;23.274;2024-02-14T09:36:27;95720.88;;;7.00
42119;BMP280;27783;42.782;23.274;2024-02-14T09:38:52;95731.25;;;6.94
42119;BMP280;27783;42.782;23.274;2024-02-14T09:41:27;95724.22;;;6.98
42119;BMP280;27783;42.782;23.274;2024-02-14T09:43:55;95720.13;;;7.00
42119;BMP280;27783;42.782;23.274;2024-02-14T09:46:24;95722.78;;;7.03
42119;BMP280;27783;42.782;23.274;2024-02-14T09:48:52;95720.22;;;7.07
42119;BMP280;27783;42.782;23.274;2024-02-14T09:51:19;95713.16;;;7.11
42119;BMP280;27783;42.782;23.274;2024-02-14T09:53:44;95711.28;;;7.11
42119;BMP280;27783;42.782;23.274;2024-02-14T09:56:12;95714.34;;;7.16
42119;BMP280;27783;42.782;23.274;2024-02-14T09:58:43;95711.56;;;7.03
42119;BMP280;27783;42.782;23.274;2024-02-14T10:01:28;95709.94;;;7.20
42119;BMP280;27783;42.782;23.274;2024-02-14T10:03:54;95712.03;;;7.12
42119;BMP280;27783;42.782;23.274;2024-02-14T10:06:21;95707.72;;;7.54
42119;BMP280;27783;42.782;23.274;2024-02-14T10:08:48;95710.16;;;7.37
42119;BMP280;27783;42.782;23.274;2024-02-14T10:11:18;95710.50;;;7.36
42119;BMP280;27783;42.782;23.274;2024-02-14T10:13:49;95706.63;;;7.27
42119;BMP280;27783;42.782;23.274;2024-02-14T10:16:16;95716.13;;;7.38
42119;BMP280;27783;42.782;23.274;2024-02-14T10:18:47;95713.41;;;7.31
42119;BMP280;27783;42.782;23.274;2024-02-14T10:21:16;95714.41;;;7.20
42119;BMP280;27783;42.782;23.274;2024-02-14T10:23:45;95706.94;;;7.22
42119;BMP280;27783;42.782;23.274;2024-02-14T10:26:15;95709.13;;;7.16
42119;BMP280;27783;42.782;23.274;2024-02-14T10:28:42;95707.97;;;7.14
42119;BMP280;27783;42.782;23.274;2024-02-14T10:31:07;95715.38;;;7.09
42119;BMP280;27783;42.782;23.274;2024-02-14T10:33:35;95704.31;;;7.22
42119;BMP280;27783;42.782;23.274;2024-02-14T10:36:01;95701.72;;;7.25
42119;BMP280;27783;42.782;23.274;2024-02-14T10:38:31;95713.25;;;7.46
42119;BMP280;27783;42.782;23.274;2024-02-14T10:41:00;95705.59;;;7.34
42119;BMP280;27783;42.782;23.274;2024-02-14T10:43:26;95701.94;;;7.42
42119;BMP280;27783;42.782;23.274;2024-02-14T10:45:56;95716.94;;;7.42
42119;BMP280;27783;42.782;23.274;2024-02-14T10:48:24;95707.88;;;7.36
42119;BMP280;27783;42.782;23.274;2024-02-14T10:50:57;95718.25;;;7.29
42119;BMP280;27783;42.782;23.274;2024-02-14T10:53:25;95716.56;;;7.15
42119;BMP280;27783;42.782;23.274;2024-02-14T10:55:50;95707.06;;;7.32
42119;BMP280;27783;42.782;23.274;2024-02-14T10:58:17;95709.47;;;7.44
42119;BMP280;27783;42.782;23.274;2024-02-14T11:00:43;95707.47;;;7.34
42119;BMP280;27783;42.782;23.274;2024-02-14T11:03:09;95701.53;;;7.37
42119;BMP280;27783;42.782;23.274;2024-02-14T11:05:47;95708.53;;;7.30
42119;BMP280;27783;42.782;23.274;2024-02-14T11:08:22;95713.03;;;7.29
42119;BMP280;27783;42.782;23.274;2024-02-14T11:10:56;95700.34;;;7.34
42119;BMP280;27783;42.782;23.274;2024-02-14T11:13:26;95714.69;;;7.40
42119;BMP280;27783;42.782;23.274;2024-02-14T11:15:54;95709.78;;;7.39
42119;BMP280;27783;42.782;23.274;2024-02-14T11:18:30;95708.25;;;7.38
42119;BMP280;27783;42.782;23.274;2024-02-14T11:20:57;95706.13;;;7.47
42119;BMP280;27783;42.782;23.274;2024-02-14T11:23:25;95708.88;;;7.28
42119;BMP280;27783;42.782;23.274;2024-02-14T11:26:03;95704.69;;;7.20
42119;BMP280;27783;42.782;23.274;2024-02-14T11:28:29;95698.09;;;7.33
42119;BMP280;27783;42.782;23.274;2024-02-14T11:31:00;95703.72;;;7.35
42119;BMP280;27783;42.782;23.274;2024-02-14T11:33:26;95706.97;;;7.25
42119;BMP280;27783;42.782;23.274;2024-02-14T11:35:53;95702.53;;;7.29
42119;BMP280;27783;42.782;23.274;2024-02-14T11:38:23;95704.81;;;7.31
42119;BMP280;27783;42.782;23.274;2024-02-14T11:40:53;95702.91;;;7.31
42119;BMP280;27783;42.782;23.274;2024-02-14T11:43:20;95707.28;;;7.49
42119;BMP280;27783;42.782;23.274;2024-02-14T11:45:46;95704.91;;;7.41
42119;BMP280;27783;42.782;23.274;2024-02-14T11:48:15;95699.78;;;7.51
42119;BMP280;27783;42.782;23.274;2024-02-14T11:50:43;95708.34;;;7.45
42119;BMP280;27783;42.782;23.274;2024-02-14T11:53:10;95700.38;;;7.38
42119;BMP280;27783;42.782;23.274;2024-02-14T11:55:37;95699.00;;;7.44
42119;BMP280;27783;42.782;23.274;2024-02-14T11:58:10;95703.50;;;7.47
42119;BMP280;27783;42.782;23.274;2024-02-14T12:00:45;95714.81;;;7.50
42119;BMP280;27783;42.782;23.274;2024-02-14T12:03:18;95703.22;;;7.55
42119;BMP280;27783;42.782;23.274;2024-02-14T12:05:46;95705.16;;;7.61
42119;BMP280;27783;42.782;23.274;2024-02-14T12:08:13;95705.56;;;7.63
42119;BMP280;27783;42.782;23.274;2024-02-14T12:10:42;95703.75;;;7.67
42119;BMP280;27783;42.782;23.274;2024-02-14T12:13:10;95703.72;;;7.64
42119;BMP280;27783;42.782;23.274;2024-02-14T12:15:41;95705.56;;;7.63
42119;BMP280;27783;42.782;23.274;2024-02-14T12:18:07;95700.72;;;7.65
42119;BMP280;27783;42.782;23.274;2024-02-14T12:20:33;95710.81;;;7.63
42119;BMP280;27783;42.782;23.274;2024-02-14T12:23:01;95703.34;;;7.65
42119;BMP280;27783;42.782;23.274;2024-02-14T12:25:26;95697.41;;;7.71
42119;BMP280;27783;42.782;23.274;2024-02-14T12:27:52;95692.50;;;7.66
42119;BMP280;27783;42.782;23.274;2024-02-14T12:30:18;95685.09;;;7.75
42119;BMP280;27783;42.782;23.274;2024-02-14T12:32:45;95681.13;;;7.91
42119;BMP280;27783;42.782;23.274;2024-02-14T12:35:11;95681.41;;;7.80
42119;BMP280;27783;42.782;23.274;2024-02-14T12:37:36;95676.91;;;7.83
42119;BMP280;27783;42.782;23.274;2024-02-14T12:40:04;95670.28;;;7.93
42119;BMP280;27783;42.782;23.274;2024-02-14T12:42:31;95681.94;;;7.95
42119;BMP280;27783;42.782;23.274;2024-02-14T12:44:57;95681.22;;;7.98
42119;BMP280;27783;42.782;23.274;2024-02-14T12:47:23;95680.88;;;7.99
42119;BMP280;27783;42.782;23.274;2024-02-14T12:49:49;95685.28;;;7.92
42119;BMP280;27783;42.782;23.274;2024-02-14T12:52:14;95687.63;;;8.00
42119;BMP280;27783;42.782;23.274;2024-02-14T12:54:40;95680.72;;;7.86
42119;BMP280;27783;42.782;23.274;2024-02-14T12:57:05;95678.91;;;7.93
42119;BMP280;27783;42.782;23.274;2024-02-14T12:59:31;95685.75;;;8.01
42119;BMP280;27783;42.782;23.274;2024-02-14T13:01:57;95684.25;;;8.00
42119;BMP280;27783;42.782;23.274;2024-02-14T13:04:22;95687.19;;;7.95
42119;BMP280;27783;42.782;23.274;2024-02-14T13:06:47;95697.78;;;8.02
42119;BMP280;27783;42.782;23.274;2024-02-14T13:09:13;95692.56;;;8.05
42119;BMP280;27783;42.782;23.274;2024-02-14T13:11:40;95690.75;;;8.13
42119;BMP280;27783;42.782;23.274;2024-02-14T13:14:07;95689.19;;;8.05
42119;BMP280;27783;42.782;23.274;2024-02-14T13:16:35;95694.84;;;8.10
42119;BMP280;27783;42.782;23.274;2024-02-14T13:19:00;95693.41;;;8.16
42119;BMP280;27783;42.782;23.274;2024-02-14T13:21:26;95696.00;;;8.13
42119;BMP280;27783;42.782;23.274;2024-02-14T13:23:51;95697.44;;;8.07
42119;BMP280;27783;42.782;23.274;2024-02-14T13:26:17;95697.47;;;8.10
42119;BMP280;27783;42.782;23.274;2024-02-14T13:28:42;95691.09;;;8.11
42119;BMP280;27783;42.782;23.274;2024-02-14T13:31:09;95691.47;;;8.10
42119;BMP280;27783;42.782;23.274;2024-02-14T13:33:35;95704.00;;;8.26
42119;BMP280;27783;42.782;23.274;2024-02-14T13:36:01;95693.75;;;8.15
42119;BMP280;27783;42.782;23.274;2024-02-14T13:38:26;95693.75;;;8.15
42119;BMP280;27783;42.782;23.274;2024-02-14T13:40:51;95694.16;;;8.16
42119;BMP280;27783;42.782;23.274;2024-02-14T13:43:17;95701.25;;;8.13
42119;BMP280;27783;42.782;23.274;2024-02-14T13:45:44;95696.47;;;8.21
42119;BMP280;27783;42.782;23.274;2024-02-14T13:48:10;95699.84;;;8.22
42119;BMP280;27783;42.782;23.274;2024-02-14T13:50:36;95698.75;;;8.26
42119;BMP280;27783;42.782;23.274;2024-02-14T13:53:03;95702.09;;;8.23
42119;BMP280;27783;42.782;23.274;2024-02-14T13:55:29;95695.69;;;8.21
42119;BMP280;27783;42.782;23.274;2024-02-14T13:57:54;95700.88;;;8.14
42119;BMP280;27783;42.782;23.274;2024-02-14T14:00:20;95706.53;;;8.16
42119;BMP280;27783;42.782;23.274;2024-02-14T14:02:45;95707.03;;;8.28
42119;BMP280;27783;42.782;23.274;2024-02-14T14:05:11;95706.63;;;8.26